This is the latest recevied weather packets stored in our database for station/object KJ4W. If no packets are shown the sender has not sent any weather packets the latest 10 day(s).
| Time | Temp. | Humidity | Pressure | Rain* | Wind** | Luminosity | Snow |
|---|---|---|---|---|---|---|---|
| 1777732143 | 13.89° C | 58% | 1018.3 hPa | 0 mm | - | - | - |
| 1777731246 | 13.89° C | 60% | 1018.4 hPa | 0 mm | - | - | - |
| 1777730344 | 13.33° C | 65% | 1018.4 hPa | 0 mm | - | - | - |
| 1777729443 | 12.22° C | 66% | 1018.3 hPa | 0 mm | - | - | - |
| 1777728543 | 11.67° C | 74% | 1018.2 hPa | 0 mm | - | - | - |
| 1777727644 | 10.56° C | 80% | 1018.1 hPa | 0 mm | - | - | - |
| 1777726744 | 8.89° C | 94% | 1018 hPa | 0 mm | - | - | - |
| 1777725843 | 7.78° C | 97% | 1018.1 hPa | 0 mm | - | - | - |
| 1777724943 | 7.22° C | 97% | 1017.9 hPa | 0 mm | - | - | - |
| 1777724044 | 6.67° C | 97% | 1017.8 hPa | 0 mm | - | - | - |
| 1777723144 | 6.11° C | 97% | 1017.8 hPa | 0 mm | - | - | - |
| 1777722243 | 5.56° C | 97% | 1017.5 hPa | 0 mm | - | - | - |
| 1777721343 | 5° C | 96% | 1017.3 hPa | 0 mm | - | - | - |
| 1777720443 | 4.44° C | 95% | 1017.2 hPa | 0 mm | - | - | - |
| 1777719543 | 4.44° C | 95% | 1017.1 hPa | 0 mm | - | - | - |
| 1777718643 | 5° C | 95% | 1017 hPa | 0 mm | - | - | - |
| 1777717744 | 5° C | 95% | 1017 hPa | 0 mm | - | - | - |
| 1777716844 | 5° C | 95% | 1017 hPa | 0 mm | - | - | - |
| 1777715943 | 5° C | 94% | 1017 hPa | 0 mm | - | - | - |
| 1777715042 | 5° C | 94% | 1016.7 hPa | 0 mm | - | - | - |
| 1777714144 | 5° C | 94% | 1016.5 hPa | 0 mm | - | - | - |
| 1777713243 | 5.56° C | 93% | 1016.5 hPa | 0 mm | - | - | - |
| 1777712344 | 5.56° C | 93% | 1016.6 hPa | 0 mm | - | - | - |
| 1777711444 | 5.56° C | 93% | 1016.6 hPa | 0 mm | - | - | - |
| 1777710543 | 5.56° C | 92% | 1016.7 hPa | 0 mm | - | - | - |
* Rain latest hour (hover to see other rain measurements)
** Current wind speed in m/s (hover to see current wind gust speed)